sensor_id;sensor_type;location;lat;lon;timestamp;pressure;altitude;pressure_sealevel;temperature;humidity
44441;BME280;30146;52.268;20.944;2023-11-21T00:02:01;99653.84;;;0.93;77.45
44441;BME280;30146;52.268;20.944;2023-11-21T00:04:32;99661.25;;;0.93;77.31
44441;BME280;30146;52.268;20.944;2023-11-21T00:07:04;99660.55;;;0.91;77.11
44441;BME280;30146;52.268;20.944;2023-11-21T00:09:36;99670.61;;;0.90;77.15
44441;BME280;30146;52.268;20.944;2023-11-21T00:12:07;99675.63;;;0.89;77.23
44441;BME280;30146;52.268;20.944;2023-11-21T00:14:39;99675.43;;;0.87;77.11
44441;BME280;30146;52.268;20.944;2023-11-21T00:17:10;99673.77;;;0.88;77.32
44441;BME280;30146;52.268;20.944;2023-11-21T00:19:41;99674.02;;;0.92;77.51
44441;BME280;30146;52.268;20.944;2023-11-21T00:22:12;99676.79;;;0.96;77.50
44441;BME280;30146;52.268;20.944;2023-11-21T00:24:43;99686.56;;;0.98;77.40
44441;BME280;30146;52.268;20.944;2023-11-21T00:27:14;99689.65;;;1.01;77.51
44441;BME280;30146;52.268;20.944;2023-11-21T00:29:45;99691.38;;;1.03;77.46
44441;BME280;30146;52.268;20.944;2023-11-21T00:32:17;99690.73;;;1.05;77.46
44441;BME280;30146;52.268;20.944;2023-11-21T00:34:47;99694.00;;;1.08;77.41
44441;BME280;30146;52.268;20.944;2023-11-21T00:37:18;99691.11;;;1.07;77.29
44441;BME280;30146;52.268;20.944;2023-11-21T00:39:49;99694.17;;;1.09;77.27
44441;BME280;30146;52.268;20.944;2023-11-21T00:42:20;99698.38;;;1.09;77.00
44441;BME280;30146;52.268;20.944;2023-11-21T00:44:53;99701.38;;;1.07;76.79
44441;BME280;30146;52.268;20.944;2023-11-21T00:47:23;99704.20;;;1.05;77.02
44441;BME280;30146;52.268;20.944;2023-11-21T00:49:54;99696.30;;;1.05;77.07
44441;BME280;30146;52.268;20.944;2023-11-21T00:52:26;99698.48;;;1.05;76.98
44441;BME280;30146;52.268;20.944;2023-11-21T00:54:57;99702.17;;;1.04;77.04
44441;BME280;30146;52.268;20.944;2023-11-21T00:57:28;99704.19;;;1.04;76.98
44441;BME280;30146;52.268;20.944;2023-11-21T00:59:59;99706.41;;;1.06;77.11
44441;BME280;30146;52.268;20.944;2023-11-21T01:02:30;99709.80;;;1.07;77.08
44441;BME280;30146;52.268;20.944;2023-11-21T01:05:03;99705.43;;;1.07;76.88
44441;BME280;30146;52.268;20.944;2023-11-21T01:07:34;99707.57;;;1.05;76.61
44441;BME280;30146;52.268;20.944;2023-11-21T01:10:07;99711.17;;;1.00;76.48
44441;BME280;30146;52.268;20.944;2023-11-21T01:12:39;99713.90;;;0.92;76.28
44441;BME280;30146;52.268;20.944;2023-11-21T01:15:11;99715.95;;;0.85;76.28
44441;BME280;30146;52.268;20.944;2023-11-21T01:17:42;99719.58;;;0.82;76.29
44441;BME280;30146;52.268;20.944;2023-11-21T01:20:14;99728.05;;;0.76;76.20
44441;BME280;30146;52.268;20.944;2023-11-21T01:22:45;99727.61;;;0.71;76.29
44441;BME280;30146;52.268;20.944;2023-11-21T01:25:18;99730.66;;;0.64;76.02
44441;BME280;30146;52.268;20.944;2023-11-21T01:27:51;99734.27;;;0.60;76.17
44441;BME280;30146;52.268;20.944;2023-11-21T01:30:22;99734.24;;;0.58;76.40
44441;BME280;30146;52.268;20.944;2023-11-21T01:32:53;99728.48;;;0.56;76.40
44441;BME280;30146;52.268;20.944;2023-11-21T01:35:24;99731.89;;;0.58;76.67
44441;BME280;30146;52.268;20.944;2023-11-21T01:37:55;99734.64;;;0.62;76.88
44441;BME280;30146;52.268;20.944;2023-11-21T01:40:26;99732.34;;;0.64;76.86
44441;BME280;30146;52.268;20.944;2023-11-21T01:42:58;99733.23;;;0.58;76.38
44441;BME280;30146;52.268;20.944;2023-11-21T01:45:31;99730.48;;;0.47;75.84
44441;BME280;30146;52.268;20.944;2023-11-21T01:48:04;99729.12;;;0.39;75.85
44441;BME280;30146;52.268;20.944;2023-11-21T01:50:39;99732.15;;;0.40;76.38
44441;BME280;30146;52.268;20.944;2023-11-21T01:53:12;99740.46;;;0.43;76.64
44441;BME280;30146;52.268;20.944;2023-11-21T01:55:43;99741.36;;;0.45;76.78
44441;BME280;30146;52.268;20.944;2023-11-21T01:58:15;99740.91;;;0.48;76.81
44441;BME280;30146;52.268;20.944;2023-11-21T02:00:48;99741.28;;;0.49;76.74
44441;BME280;30146;52.268;20.944;2023-11-21T02:03:22;99735.46;;;0.53;76.90
44441;BME280;30146;52.268;20.944;2023-11-21T02:05:53;99739.39;;;0.55;76.95
44441;BME280;30146;52.268;20.944;2023-11-21T02:08:24;99735.16;;;0.54;76.60
44441;BME280;30146;52.268;20.944;2023-11-21T02:10:56;99736.48;;;0.53;76.50
44441;BME280;30146;52.268;20.944;2023-11-21T02:13:27;99731.96;;;0.54;76.54
44441;BME280;30146;52.268;20.944;2023-11-21T02:16:00;99735.96;;;0.52;76.34
44441;BME280;30146;52.268;20.944;2023-11-21T02:18:31;99740.21;;;0.54;76.56
44441;BME280;30146;52.268;20.944;2023-11-21T02:21:03;99743.98;;;0.58;76.80
44441;BME280;30146;52.268;20.944;2023-11-21T02:23:34;99748.96;;;0.55;76.24
44441;BME280;30146;52.268;20.944;2023-11-21T02:26:07;99749.62;;;0.54;76.47
44441;BME280;30146;52.268;20.944;2023-11-21T02:28:39;99754.02;;;0.55;76.50
44441;BME280;30146;52.268;20.944;2023-11-21T02:31:10;99751.14;;;0.54;76.51
44441;BME280;30146;52.268;20.944;2023-11-21T02:33:42;99754.20;;;0.56;76.44
44441;BME280;30146;52.268;20.944;2023-11-21T02:36:13;99754.38;;;0.56;76.38
44441;BME280;30146;52.268;20.944;2023-11-21T02:38:44;99751.34;;;0.55;76.41
44441;BME280;30146;52.268;20.944;2023-11-21T02:41:15;99752.38;;;0.57;76.49
44441;BME280;30146;52.268;20.944;2023-11-21T02:43:45;99754.20;;;0.56;76.31
44441;BME280;30146;52.268;20.944;2023-11-21T02:46:17;99754.79;;;0.52;76.17
44441;BME280;30146;52.268;20.944;2023-11-21T02:48:47;99759.17;;;0.53;76.33
44441;BME280;30146;52.268;20.944;2023-11-21T02:51:20;99762.59;;;0.54;76.57
44441;BME280;30146;52.268;20.944;2023-11-21T02:53:51;99764.79;;;0.55;76.33
44441;BME280;30146;52.268;20.944;2023-11-21T02:56:22;99765.45;;;0.55;76.32
44441;BME280;30146;52.268;20.944;2023-11-21T02:58:54;99767.15;;;0.55;76.23
44441;BME280;30146;52.268;20.944;2023-11-21T03:01:26;99767.96;;;0.55;76.03
44441;BME280;30146;52.268;20.944;2023-11-21T03:03:57;99767.77;;;0.53;76.03
44441;BME280;30146;52.268;20.944;2023-11-21T03:06:28;99763.04;;;0.52;76.10
44441;BME280;30146;52.268;20.944;2023-11-21T03:08:59;99766.59;;;0.53;76.28
44441;BME280;30146;52.268;20.944;2023-11-21T03:11:30;99768.11;;;0.54;76.35
44441;BME280;30146;52.268;20.944;2023-11-21T03:14:02;99771.51;;;0.55;76.30
44441;BME280;30146;52.268;20.944;2023-11-21T03:16:33;99769.52;;;0.56;76.13
44441;BME280;30146;52.268;20.944;2023-11-21T03:19:04;99771.70;;;0.56;76.26
44441;BME280;30146;52.268;20.944;2023-11-21T03:21:37;99772.21;;;0.56;76.17
44441;BME280;30146;52.268;20.944;2023-11-21T03:24:09;99768.83;;;0.55;76.20
44441;BME280;30146;52.268;20.944;2023-11-21T03:26:40;99774.55;;;0.56;76.17
44441;BME280;30146;52.268;20.944;2023-11-21T03:29:11;99774.72;;;0.55;76.31
44441;BME280;30146;52.268;20.944;2023-11-21T03:31:42;99777.08;;;0.56;76.25
44441;BME280;30146;52.268;20.944;2023-11-21T03:34:24;99774.42;;;0.57;76.51
44441;BME280;30146;52.268;20.944;2023-11-21T03:36:56;99776.50;;;0.60;76.51
44441;BME280;30146;52.268;20.944;2023-11-21T03:39:28;99777.38;;;0.62;76.40
44441;BME280;30146;52.268;20.944;2023-11-21T03:41:59;99776.53;;;0.62;76.30
44441;BME280;30146;52.268;20.944;2023-11-21T03:44:30;99780.39;;;0.61;76.10
44441;BME280;30146;52.268;20.944;2023-11-21T03:47:01;99783.17;;;0.57;75.94
44441;BME280;30146;52.268;20.944;2023-11-21T03:49:32;99783.92;;;0.54;75.88
44441;BME280;30146;52.268;20.944;2023-11-21T03:52:03;99789.42;;;0.51;76.00
44441;BME280;30146;52.268;20.944;2023-11-21T03:54:34;99793.39;;;0.48;75.99
44441;BME280;30146;52.268;20.944;2023-11-21T03:57:06;99798.31;;;0.43;75.87
44441;BME280;30146;52.268;20.944;2023-11-21T03:59:39;99803.98;;;0.41;75.97
44441;BME280;30146;52.268;20.944;2023-11-21T04:02:10;99805.29;;;0.39;76.12
44441;BME280;30146;52.268;20.944;2023-11-21T04:04:41;99807.98;;;0.38;76.08
44441;BME280;30146;52.268;20.944;2023-11-21T04:07:12;99811.69;;;0.40;76.25
44441;BME280;30146;52.268;20.944;2023-11-21T04:09:43;99811.41;;;0.43;76.36
44441;BME280;30146;52.268;20.944;2023-11-21T04:12:14;99814.66;;;0.45;76.51
44441;BME280;30146;52.268;20.944;2023-11-21T04:14:44;99817.05;;;0.47;76.48
44441;BME280;30146;52.268;20.944;2023-11-21T04:17:17;99817.09;;;0.48;76.47
44441;BME280;30146;52.268;20.944;2023-11-21T04:19:48;99815.59;;;0.48;76.37
44441;BME280;30146;52.268;20.944;2023-11-21T04:22:19;99811.07;;;0.50;76.45
44441;BME280;30146;52.268;20.944;2023-11-21T04:24:49;99808.91;;;0.51;76.41
44441;BME280;30146;52.268;20.944;2023-11-21T04:27:21;99812.98;;;0.53;76.47
44441;BME280;30146;52.268;20.944;2023-11-21T04:29:53;99814.53;;;0.54;76.41
44441;BME280;30146;52.268;20.944;2023-11-21T04:32:25;99820.59;;;0.54;76.37
44441;BME280;30146;52.268;20.944;2023-11-21T04:34:56;99825.80;;;0.54;76.22
44441;BME280;30146;52.268;20.944;2023-11-21T04:37:27;99829.49;;;0.53;75.92
44441;BME280;30146;52.268;20.944;2023-11-21T04:39:58;99834.05;;;0.54;76.10
44441;BME280;30146;52.268;20.944;2023-11-21T04:42:29;99839.10;;;0.54;76.15
44441;BME280;30146;52.268;20.944;2023-11-21T04:44:59;99841.78;;;0.54;76.07
44441;BME280;30146;52.268;20.944;2023-11-21T04:47:31;99844.10;;;0.52;75.88
44441;BME280;30146;52.268;20.944;2023-11-21T04:50:02;99847.42;;;0.51;75.87
44441;BME280;30146;52.268;20.944;2023-11-21T04:52:33;99850.14;;;0.52;76.04
44441;BME280;30146;52.268;20.944;2023-11-21T04:55:06;99843.80;;;0.53;76.15
44441;BME280;30146;52.268;20.944;2023-11-21T04:57:38;99839.94;;;0.54;76.03
44441;BME280;30146;52.268;20.944;2023-11-21T05:00:13;99841.29;;;0.55;75.95
44441;BME280;30146;52.268;20.944;2023-11-21T05:02:45;99842.45;;;0.54;75.90
44441;BME280;30146;52.268;20.944;2023-11-21T05:05:17;99839.71;;;0.52;75.82
44441;BME280;30146;52.268;20.944;2023-11-21T05:07:48;99847.08;;;0.50;75.79
44441;BME280;30146;52.268;20.944;2023-11-21T05:10:19;99853.61;;;0.49;75.83
44441;BME280;30146;52.268;20.944;2023-11-21T05:12:52;99856.20;;;0.45;75.37
44441;BME280;30146;52.268;20.944;2023-11-21T05:15:22;99862.51;;;0.42;75.32
44441;BME280;30146;52.268;20.944;2023-11-21T05:17:54;99863.78;;;0.38;75.32
44441;BME280;30146;52.268;20.944;2023-11-21T05:20:24;99864.11;;;0.31;75.11
44441;BME280;30146;52.268;20.944;2023-11-21T05:22:55;99865.05;;;0.28;75.36
44441;BME280;30146;52.268;20.944;2023-11-21T05:25:28;99867.19;;;0.26;75.43
44441;BME280;30146;52.268;20.944;2023-11-21T05:27:59;99870.98;;;0.23;75.41
44441;BME280;30146;52.268;20.944;2023-11-21T05:30:31;99873.61;;;0.21;75.39
44441;BME280;30146;52.268;20.944;2023-11-21T05:33:01;99881.64;;;0.19;75.42
44441;BME280;30146;52.268;20.944;2023-11-21T05:35:33;99882.50;;;0.13;75.07
44441;BME280;30146;52.268;20.944;2023-11-21T05:38:04;99884.07;;;0.09;75.17
44441;BME280;30146;52.268;20.944;2023-11-21T05:40:35;99883.86;;;0.07;75.13
44441;BME280;30146;52.268;20.944;2023-11-21T05:43:06;99887.05;;;0.07;75.54
44441;BME280;30146;52.268;20.944;2023-11-21T05:45:37;99890.33;;;0.11;75.68
44441;BME280;30146;52.268;20.944;2023-11-21T05:48:08;99888.92;;;0.14;75.87
44441;BME280;30146;52.268;20.944;2023-11-21T05:50:39;99891.36;;;0.18;76.14
44441;BME280;30146;52.268;20.944;2023-11-21T05:53:09;99896.01;;;0.22;76.10
44441;BME280;30146;52.268;20.944;2023-11-21T05:55:41;99897.16;;;0.22;75.79
44441;BME280;30146;52.268;20.944;2023-11-21T05:58:11;99899.67;;;0.22;75.63
44441;BME280;30146;52.268;20.944;2023-11-21T06:00:43;99905.23;;;0.22;75.74
44441;BME280;30146;52.268;20.944;2023-11-21T06:03:14;99905.09;;;0.22;75.96
44441;BME280;30146;52.268;20.944;2023-11-21T06:05:45;99911.38;;;0.25;76.07
44441;BME280;30146;52.268;20.944;2023-11-21T06:08:15;99911.92;;;0.27;75.95
44441;BME280;30146;52.268;20.944;2023-11-21T06:10:47;99914.48;;;0.29;75.96
44441;BME280;30146;52.268;20.944;2023-11-21T06:13:19;99917.20;;;0.30;75.87
44441;BME280;30146;52.268;20.944;2023-11-21T06:15:54;99920.15;;;0.33;76.01
44441;BME280;30146;52.268;20.944;2023-11-21T06:18:25;99922.09;;;0.37;76.09
44441;BME280;30146;52.268;20.944;2023-11-21T06:20:56;99926.16;;;0.38;75.96
44441;BME280;30146;52.268;20.944;2023-11-21T06:23:27;99928.67;;;0.38;75.88
44441;BME280;30146;52.268;20.944;2023-11-21T06:25:58;99930.05;;;0.39;75.82
44441;BME280;30146;52.268;20.944;2023-11-21T06:28:30;99934.64;;;0.42;75.89
44441;BME280;30146;52.268;20.944;2023-11-21T06:31:00;99938.42;;;0.44;75.83
44441;BME280;30146;52.268;20.944;2023-11-21T06:33:35;99938.13;;;0.47;75.89
44441;BME280;30146;52.268;20.944;2023-11-21T06:36:07;99941.50;;;0.47;75.74
44441;BME280;30146;52.268;20.944;2023-11-21T06:38:40;99939.29;;;0.46;75.55
44441;BME280;30146;52.268;20.944;2023-11-21T06:41:11;99939.75;;;0.44;75.44
44441;BME280;30146;52.268;20.944;2023-11-21T06:43:44;99946.36;;;0.46;75.72
44441;BME280;30146;52.268;20.944;2023-11-21T06:46:16;99947.20;;;0.46;75.65
44441;BME280;30146;52.268;20.944;2023-11-21T06:48:48;99948.77;;;0.42;75.26
44441;BME280;30146;52.268;20.944;2023-11-21T06:51:20;99956.63;;;0.39;75.29
44441;BME280;30146;52.268;20.944;2023-11-21T06:53:51;99959.27;;;0.38;75.31
44441;BME280;30146;52.268;20.944;2023-11-21T06:56:21;99962.07;;;0.35;75.29
44441;BME280;30146;52.268;20.944;2023-11-21T06:58:52;99964.56;;;0.34;75.51
44441;BME280;30146;52.268;20.944;2023-11-21T07:01:24;99966.92;;;0.35;75.39
44441;BME280;30146;52.268;20.944;2023-11-21T07:03:55;99968.95;;;0.35;75.45
44441;BME280;30146;52.268;20.944;2023-11-21T07:06:26;99973.36;;;0.37;75.46
44441;BME280;30146;52.268;20.944;2023-11-21T07:08:56;99980.55;;;0.35;75.32
44441;BME280;30146;52.268;20.944;2023-11-21T07:11:28;99982.72;;;0.34;75.42
44441;BME280;30146;52.268;20.944;2023-11-21T07:13:58;99985.61;;;0.29;74.82
44441;BME280;30146;52.268;20.944;2023-11-21T07:16:32;99984.52;;;0.20;74.71
44441;BME280;30146;52.268;20.944;2023-11-21T07:19:04;99983.86;;;0.14;74.66
44441;BME280;30146;52.268;20.944;2023-11-21T07:21:36;99989.80;;;0.10;74.79
44441;BME280;30146;52.268;20.944;2023-11-21T07:24:09;99987.16;;;0.05;74.86
44441;BME280;30146;52.268;20.944;2023-11-21T07:26:40;99991.10;;;0.02;75.00
44441;BME280;30146;52.268;20.944;2023-11-21T07:29:11;99993.08;;;0.01;75.03
44441;BME280;30146;52.268;20.944;2023-11-21T07:31:43;99994.48;;;0.03;75.30
44441;BME280;30146;52.268;20.944;2023-11-21T07:34:14;99999.30;;;0.07;75.68
44441;BME280;30146;52.268;20.944;2023-11-21T07:36:45;99997.71;;;0.10;75.49
44441;BME280;30146;52.268;20.944;2023-11-21T07:39:16;100000.27;;;0.12;75.24
44441;BME280;30146;52.268;20.944;2023-11-21T07:41:47;99999.99;;;0.08;75.17
44441;BME280;30146;52.268;20.944;2023-11-21T07:44:19;99996.46;;;0.08;75.24
44441;BME280;30146;52.268;20.944;2023-11-21T07:46:51;100001.19;;;0.08;75.14
44441;BME280;30146;52.268;20.944;2023-11-21T07:49:22;99999.22;;;0.10;75.22
44441;BME280;30146;52.268;20.944;2023-11-21T07:51:52;100003.50;;;0.13;75.40
44441;BME280;30146;52.268;20.944;2023-11-21T07:54:23;100002.80;;;0.18;75.53
44441;BME280;30146;52.268;20.944;2023-11-21T07:56:54;100003.97;;;0.24;75.80
44441;BME280;30146;52.268;20.944;2023-11-21T07:59:25;100000.90;;;0.29;75.73
44441;BME280;30146;52.268;20.944;2023-11-21T08:01:55;100003.86;;;0.33;75.56
44441;BME280;30146;52.268;20.944;2023-11-21T08:04:26;100003.77;;;0.35;75.39
44441;BME280;30146;52.268;20.944;2023-11-21T08:07:00;100009.45;;;0.34;75.29
44441;BME280;30146;52.268;20.944;2023-11-21T08:09:31;100007.10;;;0.34;75.25
44441;BME280;30146;52.268;20.944;2023-11-21T08:12:07;100013.11;;;0.33;75.11
44441;BME280;30146;52.268;20.944;2023-11-21T08:14:40;100020.60;;;0.30;74.93
44441;BME280;30146;52.268;20.944;2023-11-21T08:17:11;100018.48;;;0.33;75.22
44441;BME280;30146;52.268;20.944;2023-11-21T08:19:43;100016.07;;;0.37;75.42
44441;BME280;30146;52.268;20.944;2023-11-21T08:22:19;100016.66;;;0.40;75.55
44441;BME280;30146;52.268;20.944;2023-11-21T08:24:52;100019.98;;;0.45;75.32
44441;BME280;30146;52.268;20.944;2023-11-21T08:27:25;100020.23;;;0.48;75.57
44441;BME280;30146;52.268;20.944;2023-11-21T08:29:56;100026.74;;;0.53;75.49
44441;BME280;30146;52.268;20.944;2023-11-21T08:32:28;100026.95;;;0.54;75.42
44441;BME280;30146;52.268;20.944;2023-11-21T08:35:00;100029.17;;;0.56;75.24
44441;BME280;30146;52.268;20.944;2023-11-21T08:37:31;100035.77;;;0.56;75.28
44441;BME280;30146;52.268;20.944;2023-11-21T08:40:08;100036.68;;;0.60;75.36
44441;BME280;30146;52.268;20.944;2023-11-21T08:42:39;100040.41;;;0.61;75.27
44441;BME280;30146;52.268;20.944;2023-11-21T08:45:11;100040.77;;;0.62;75.38
44441;BME280;30146;52.268;20.944;2023-11-21T08:47:42;100045.52;;;0.64;75.21
44441;BME280;30146;52.268;20.944;2023-11-21T08:50:14;100049.77;;;0.66;75.16
44441;BME280;30146;52.268;20.944;2023-11-21T08:52:46;100048.77;;;0.66;75.18
44441;BME280;30146;52.268;20.944;2023-11-21T08:55:17;100052.16;;;0.67;75.19
44441;BME280;30146;52.268;20.944;2023-11-21T08:57:49;100053.02;;;0.67;75.23
44441;BME280;30146;52.268;20.944;2023-11-21T09:00:20;100054.94;;;0.70;75.16
44441;BME280;30146;52.268;20.944;2023-11-21T09:02:51;100058.34;;;0.71;74.99
44441;BME280;30146;52.268;20.944;2023-11-21T09:05:22;100060.92;;;0.74;75.13
44441;BME280;30146;52.268;20.944;2023-11-21T09:07:53;100064.16;;;0.75;75.05
44441;BME280;30146;52.268;20.944;2023-11-21T09:10:24;100067.53;;;0.76;75.06
44441;BME280;30146;52.268;20.944;2023-11-21T09:12:55;100070.28;;;0.79;75.06
44441;BME280;30146;52.268;20.944;2023-11-21T09:15:27;100073.69;;;0.80;74.94
44441;BME280;30146;52.268;20.944;2023-11-21T09:17:58;100077.07;;;0.80;74.89
44441;BME280;30146;52.268;20.944;2023-11-21T09:20:31;100072.55;;;0.81;74.90
44441;BME280;30146;52.268;20.944;2023-11-21T09:23:02;100073.06;;;0.81;74.76
44441;BME280;30146;52.268;20.944;2023-11-21T09:25:33;100076.75;;;0.81;74.69
44441;BME280;30146;52.268;20.944;2023-11-21T09:28:06;100075.89;;;0.80;74.57
44441;BME280;30146;52.268;20.944;2023-11-21T09:30:38;100079.20;;;0.78;74.40
44441;BME280;30146;52.268;20.944;2023-11-21T09:33:09;100076.30;;;0.76;74.35
44441;BME280;30146;52.268;20.944;2023-11-21T09:35:40;100075.28;;;0.76;74.48
44441;BME280;30146;52.268;20.944;2023-11-21T09:38:13;100082.24;;;0.78;74.58
44441;BME280;30146;52.268;20.944;2023-11-21T09:40:45;100077.56;;;0.80;74.47
44441;BME280;30146;52.268;20.944;2023-11-21T09:43:18;100076.56;;;0.80;74.36
44441;BME280;30146;52.268;20.944;2023-11-21T09:45:56;100076.77;;;0.81;74.36
44441;BME280;30146;52.268;20.944;2023-11-21T09:48:28;100070.91;;;0.83;74.53
44441;BME280;30146;52.268;20.944;2023-11-21T09:51:01;100069.65;;;0.86;74.55
44441;BME280;30146;52.268;20.944;2023-11-21T09:53:33;100074.80;;;0.90;74.46
44441;BME280;30146;52.268;20.944;2023-11-21T09:56:07;100073.69;;;0.93;74.48
44441;BME280;30146;52.268;20.944;2023-11-21T09:58:38;100078.51;;;0.90;74.13
44441;BME280;30146;52.268;20.944;2023-11-21T10:01:09;100081.48;;;0.89;74.12
44441;BME280;30146;52.268;20.944;2023-11-21T10:03:42;100079.83;;;0.89;74.20
44441;BME280;30146;52.268;20.944;2023-11-21T10:06:14;100086.11;;;0.91;74.31
44441;BME280;30146;52.268;20.944;2023-11-21T10:08:45;100085.51;;;0.94;74.26
44441;BME280;30146;52.268;20.944;2023-11-21T10:11:25;100088.73;;;0.95;74.26
44441;BME280;30146;52.268;20.944;2023-11-21T10:13:59;100091.83;;;0.98;74.43
44441;BME280;30146;52.268;20.944;2023-11-21T10:16:32;100092.57;;;1.01;74.34
44441;BME280;30146;52.268;20.944;2023-11-21T10:19:04;100097.84;;;1.03;74.38
44441;BME280;30146;52.268;20.944;2023-11-21T10:21:40;100095.20;;;1.05;74.23
44441;BME280;30146;52.268;20.944;2023-11-21T10:24:11;100096.59;;;1.06;74.24
44441;BME280;30146;52.268;20.944;2023-11-21T10:26:43;100097.56;;;1.05;74.02
44441;BME280;30146;52.268;20.944;2023-11-21T10:29:22;100097.38;;;1.04;73.97
44441;BME280;30146;52.268;20.944;2023-11-21T10:31:53;100098.84;;;1.03;73.89
44441;BME280;30146;52.268;20.944;2023-11-21T10:34:27;100097.30;;;1.01;73.77
44441;BME280;30146;52.268;20.944;2023-11-21T10:36:59;100094.94;;;1.01;73.92
44441;BME280;30146;52.268;20.944;2023-11-21T10:39:41;100096.60;;;1.01;73.87
44441;BME280;30146;52.268;20.944;2023-11-21T10:42:13;100096.11;;;1.01;73.88
44441;BME280;30146;52.268;20.944;2023-11-21T10:44:45;100103.86;;;1.02;73.87
44441;BME280;30146;52.268;20.944;2023-11-21T10:47:16;100108.61;;;1.03;73.87
44441;BME280;30146;52.268;20.944;2023-11-21T10:49:51;100110.81;;;1.04;73.90
44441;BME280;30146;52.268;20.944;2023-11-21T10:52:25;100113.55;;;1.05;73.97
44441;BME280;30146;52.268;20.944;2023-11-21T10:54:57;100113.24;;;1.06;74.16
44441;BME280;30146;52.268;20.944;2023-11-21T10:57:29;100113.24;;;1.07;73.72
44441;BME280;30146;52.268;20.944;2023-11-21T11:00:01;100116.41;;;1.05;73.79
44441;BME280;30146;52.268;20.944;2023-11-21T11:02:34;100114.98;;;1.02;73.57
44441;BME280;30146;52.268;20.944;2023-11-21T11:05:06;100118.22;;;0.96;73.40
44441;BME280;30146;52.268;20.944;2023-11-21T11:07:43;100115.77;;;0.93;73.54
44441;BME280;30146;52.268;20.944;2023-11-21T11:10:15;100119.60;;;0.91;73.65
44441;BME280;30146;52.268;20.944;2023-11-21T11:12:47;100114.79;;;0.88;73.48
44441;BME280;30146;52.268;20.944;2023-11-21T11:15:18;100114.95;;;0.87;73.67
44441;BME280;30146;52.268;20.944;2023-11-21T11:17:50;100113.11;;;0.88;73.82
44441;BME280;30146;52.268;20.944;2023-11-21T11:20:22;100114.04;;;0.85;73.47
44441;BME280;30146;52.268;20.944;2023-11-21T11:23:08;100120.70;;;0.82;73.64
44441;BME280;30146;52.268;20.944;2023-11-21T11:25:50;100121.80;;;0.85;73.88
44441;BME280;30146;52.268;20.944;2023-11-21T11:28:32;100127.66;;;0.90;74.15
44441;BME280;30146;52.268;20.944;2023-11-21T11:31:13;100127.08;;;0.94;74.15
44441;BME280;30146;52.268;20.944;2023-11-21T11:33:53;100130.85;;;0.97;74.07
44441;BME280;30146;52.268;20.944;2023-11-21T11:36:28;100127.48;;;0.97;73.85
44441;BME280;30146;52.268;20.944;2023-11-21T11:39:00;100129.64;;;0.96;73.67
44441;BME280;30146;52.268;20.944;2023-11-21T11:41:33;100129.10;;;0.88;73.11
44441;BME280;30146;52.268;20.944;2023-11-21T11:47:16;100125.88;;;0.74;73.13
44441;BME280;30146;52.268;20.944;2023-11-21T11:50:05;100127.42;;;0.69;73.12
44441;BME280;30146;52.268;20.944;2023-11-21T11:52:39;100130.39;;;0.67;73.38
44441;BME280;30146;52.268;20.944;2023-11-21T11:55:13;100132.41;;;0.67;73.50
44441;BME280;30146;52.268;20.944;2023-11-21T11:57:44;100131.23;;;0.67;73.60
44441;BME280;30146;52.268;20.944;2023-11-21T12:00:18;100131.11;;;0.69;73.78
44441;BME280;30146;52.268;20.944;2023-11-21T12:02:51;100130.83;;;0.71;73.79
44441;BME280;30146;52.268;20.944;2023-11-21T12:05:23;100135.06;;;0.72;73.63
44441;BME280;30146;52.268;20.944;2023-11-21T12:07:59;100130.15;;;0.71;73.46
44441;BME280;30146;52.268;20.944;2023-11-21T12:10:31;100137.98;;;0.67;73.13
44441;BME280;30146;52.268;20.944;2023-11-21T12:13:05;100144.17;;;0.67;73.35
44441;BME280;30146;52.268;20.944;2023-11-21T12:15:38;100143.27;;;0.70;73.66
44441;BME280;30146;52.268;20.944;2023-11-21T12:18:11;100146.00;;;0.72;73.72
44441;BME280;30146;52.268;20.944;2023-11-21T12:20:42;100146.42;;;0.75;73.67
44441;BME280;30146;52.268;20.944;2023-11-21T12:23:16;100153.04;;;0.77;73.61
44441;BME280;30146;52.268;20.944;2023-11-21T12:25:47;100160.41;;;0.76;73.42
44441;BME280;30146;52.268;20.944;2023-11-21T12:28:18;100158.39;;;0.75;73.30
44441;BME280;30146;52.268;20.944;2023-11-21T12:30:49;100161.75;;;0.75;73.35
44441;BME280;30146;52.268;20.944;2023-11-21T12:33:26;100161.09;;;0.76;73.35
44441;BME280;30146;52.268;20.944;2023-11-21T12:35:58;100159.43;;;0.77;73.31
44441;BME280;30146;52.268;20.944;2023-11-21T12:38:36;100159.05;;;0.75;73.14
44441;BME280;30146;52.268;20.944;2023-11-21T12:41:07;100160.95;;;0.71;73.00
44441;BME280;30146;52.268;20.944;2023-11-21T12:43:38;100163.77;;;0.69;72.98
44441;BME280;30146;52.268;20.944;2023-11-21T12:46:11;100164.08;;;0.68;73.00
44441;BME280;30146;52.268;20.944;2023-11-21T12:48:43;100163.63;;;0.64;72.92
44441;BME280;30146;52.268;20.944;2023-11-21T12:51:15;100162.41;;;0.63;72.94
44441;BME280;30146;52.268;20.944;2023-11-21T12:53:48;100164.34;;;0.60;72.82
44441;BME280;30146;52.268;20.944;2023-11-21T12:56:22;100167.48;;;0.58;73.00
44441;BME280;30146;52.268;20.944;2023-11-21T12:58:55;100170.23;;;0.60;73.15
44441;BME280;30146;52.268;20.944;2023-11-21T13:01:28;100170.11;;;0.62;73.30
44441;BME280;30146;52.268;20.944;2023-11-21T13:03:59;100175.75;;;0.65;73.31
44441;BME280;30146;52.268;20.944;2023-11-21T13:06:32;100181.55;;;0.67;73.33
44441;BME280;30146;52.268;20.944;2023-11-21T13:09:08;100184.61;;;0.69;73.33
44441;BME280;30146;52.268;20.944;2023-11-21T13:11:40;100186.19;;;0.71;73.31
44441;BME280;30146;52.268;20.944;2023-11-21T13:14:11;100188.73;;;0.72;73.42
44441;BME280;30146;52.268;20.944;2023-11-21T13:16:42;100184.92;;;0.74;73.43
44441;BME280;30146;52.268;20.944;2023-11-21T13:19:16;100183.92;;;0.74;73.24
44441;BME280;30146;52.268;20.944;2023-11-21T13:21:47;100190.94;;;0.73;73.10
44441;BME280;30146;52.268;20.944;2023-11-21T13:24:17;100196.83;;;0.72;73.05